Flight Track Log - Related Links

Times and Time Zones

All times are in EDT time to prevent confusion due to time zone crossing. See the N839CA flight status page for this flight to view local times or setup timezone preferences in your user account.

Time Position Orientation Groundspeed Altitude Reporting Facility
EDT Latitude Longitude Course Direction KTS MPH feet Rate Location/Type
Tue 05:12:00 PM 42.8493 -78.5316 122° Southeast  Level Estimated
Tue 05:13:00 PM 42.8363 -78.5032 122° Southeast  Level Estimated
Tue 05:14:00 PM 42.8232 -78.4748 122° Southeast  Level Estimated
Tue 05:15:00 PM 42.8102 -78.4465 122° Southeast  Level Estimated
Tue 05:16:00 PM 42.7971 -78.4181 122° Southeast  Level Estimated
Tue 05:17:00 PM 42.7840 -78.3898 122° Southeast  Level Estimated
Tue 05:18:00 PM 42.8237 -78.3208 52° Northeast  Level FlightAware Approximate
Tue 05:19:00 PM 42.7885 -78.2475 109° East  Level Estimated
Tue 05:20:00 PM 42.7533 -78.1742 98° East  Level Estimated
Tue 05:21:00 PM 42.7878 -78.1003 58° Northeast  Level FlightAware Approximate
Tue 05:22:00 PM 42.7516 -78.0280 95° East  Level Estimated
Tue 05:23:00 PM 42.7734 -77.9456 70° East  Level FlightAware Approximate
Tue 05:24:00 PM 42.7950 -77.8631 70° East  Level FlightAware Approximate
Tue 05:25:00 PM 42.7571 -77.7924 92° East  Level Estimated
Tue 05:26:00 PM 42.7658 -77.7057 82° East  Level FlightAware Approximate
Tue 05:27:00 PM 42.7744 -77.6189 82° East  Level FlightAware Approximate
Tue 05:28:00 PM 42.7830 -77.5321 82° East  Level FlightAware Approximate
Tue 05:29:00 PM 42.7915 -77.4453 82° East  Level FlightAware Approximate
Tue 05:30:00 PM 42.7999 -77.3585 82° East  Level FlightAware Approximate
Tue 05:31:00 PM 42.7582 -77.2918 90° East  Level Estimated
Tue 05:32:00 PM 42.7743 -77.2071 75° East  Level FlightAware Approximate
Tue 05:33:00 PM 42.7317 -77.1416 122° Southeast  Level Estimated
Tue 05:34:00 PM 42.7251 -77.0546 96° East  Level FlightAware Approximate
Tue 05:35:00 PM 42.7184 -76.9676 96° East  Level FlightAware Approximate
Tue 05:36:00 PM 42.7116 -76.8806 96° East  Level FlightAware Approximate
Tue 05:37:00 PM 42.6669 -76.8177 117° Southeast  Level Estimated
Tue 05:38:00 PM 42.6222 -76.7550 121° Southeast  Level Estimated
Tue 05:39:00 PM 42.5971 -76.6746 113° Southeast  Level FlightAware Approximate
Tue 05:40:00 PM 42.5719 -76.5943 113° Southeast  Level FlightAware Approximate
Tue 05:41:00 PM 42.5467 -76.5140 113° Southeast  Level FlightAware Approximate
Tue 05:42:00 PM 42.5214 -76.4338 113° Southeast  Level FlightAware Approximate
Tue 05:43:00 PM 42.4961 -76.3537 113° Southeast  Level FlightAware Approximate
Tue 05:44:00 PM 42.4707 -76.2736 113° Southeast  Level FlightAware Approximate
Tue 05:45:00 PM 42.4453 -76.1936 113° Southeast  Level FlightAware Approximate
Tue 05:46:00 PM 42.4198 -76.1137 113° Southeast  Level FlightAware Approximate
Tue 05:47:00 PM 42.3711 -76.0569 122° Southeast  Level Estimated
Tue 05:48:00 PM 42.3405 -75.9804 118° Southeast  Level FlightAware Approximate
Tue 05:49:00 PM 42.3099 -75.9039 118° Southeast  Level FlightAware Approximate
Tue 05:50:00 PM 42.2793 -75.8276 118° Southeast  Level FlightAware Approximate
Tue 05:51:00 PM 42.2486 -75.7513 119° Southeast  Level FlightAware Approximate
Tue 05:52:00 PM 42.2178 -75.6750 119° Southeast  Level FlightAware Approximate
Tue 05:53:00 PM 42.1870 -75.5989 119° Southeast  Level FlightAware Approximate
Tue 05:54:00 PM 42.1351 -75.5478 124° Southeast  Level Estimated
Tue 05:55:00 PM 42.1082 -75.4691 115° Southeast  Level FlightAware Approximate
Tue 05:56:00 PM 42.0555 -75.4195 124° Southeast  Level Estimated
Tue 05:57:00 PM 42.0028 -75.3699 112° Southeast  Level Estimated
Tue 05:58:00 PM 41.9932 -75.2844 99° East  Level FlightAware Approximate
Tue 05:59:00 PM 41.9394 -75.2371 132° Southeast  Level Estimated
Tue 06:00:00 PM 41.8856 -75.1899 124° Southeast  Level Estimated
Tue 06:01:00 PM 41.8317 -75.1429 112° Southeast  Level Estimated
Tue 06:02:00 PM 41.8358 -75.0568 86° East  Level FlightAware Approximate
Tue 06:03:00 PM 41.7805 -75.0129 143° Southeast  Level Estimated
Tue 06:04:00 PM 41.7251 -74.9692 114° Southeast  Level Estimated
Tue 06:05:00 PM 41.6698 -74.9255 120° Southeast  Level Estimated
Tue 06:06:00 PM 41.6144 -74.8819 191° South  Level Estimated
Tue 06:07:00 PM 41.6151 -74.7959 89° East  Level FlightAware Approximate
Tue 06:08:00 PM 41.5579 -74.7565 187° South  Level Estimated
Tue 06:09:00 PM 41.5364 -74.7328 141° Southeast  Level FlightAware Approximate
Tue 06:10:00 PM 41.5149 -74.7092 141° Southeast  Level FlightAware Approximate
Tue 06:11:00 PM 41.4934 -74.6856 141° Southeast  Level FlightAware Approximate
Tue 06:12:00 PM 41.4718 -74.6619 141° Southeast  Level FlightAware Approximate
Tue 06:12:42 PM 42.9500 -78.7167 198° South 121 139 1,400  Level Buffalo TRACON
Tue 06:13:00 PM 41.4503 -74.6384 141° Southeast  Level FlightAware Approximate
Tue 06:13:24 PM 42.9667 -78.7000 36° Northeast 127 146 2,300  Level Buffalo TRACON
Tue 06:14:00 PM 41.4287 -74.6148 141° Southeast  Level FlightAware Approximate
Tue 06:14:36 PM 42.9500 -78.6333 109° East 167 192 4,000  Level Buffalo TRACON
Tue 06:15:00 PM 41.4072 -74.5912 141° Southeast  Level FlightAware Approximate
Tue 06:15:43 PM 42.9500 -78.5500 90° East 165 190 5,900  Level Buffalo TRACON
Tue 06:16:00 PM 41.3887 -74.5882 198° South  Level FlightAware Approximate
Tue 06:16:45 PM 42.9375 -78.4989 108° East 201 231 7,100  Level Cleveland Center
Tue 06:17:00 PM 41.3556 -74.6024 198° South  Level FlightAware Approximate
Tue 06:17:45 PM 42.9300 -78.4311 99° East 195 224 8,400  Level Cleveland Center
Tue 06:18:45 PM 42.9181 -78.3519 102° East 190 219 9,900 850 Climbing Cleveland Center
Tue 06:19:45 PM 42.9081 -78.2703 99° East 203 234 10,100 700 Climbing Cleveland Center
Tue 06:20:45 PM 42.8981 -78.1883 99° East 215 247 11,300 1,200 Climbing Cleveland Center
Tue 06:21:45 PM 42.8858 -78.1039 101° East 220 253 12,500 1,100 Climbing Cleveland Center
Tue 06:22:45 PM 42.8758 -78.0219 99° East 220 253 13,500 1,050 Climbing Cleveland Center
Tue 06:23:45 PM 42.8656 -77.9431 100° East 220 253 14,600 800 Climbing Cleveland Center
Tue 06:24:45 PM 42.8533 -77.8614 102° East 220 253 15,100 250 Climbing Cleveland Center
Tue 06:25:45 PM 42.8408 -77.7714 101° East 225 259 15,100  Level Cleveland Center
Tue 06:27:29 PM 42.8358 -77.6169 92° East 250 288 15,100 -36 Level New York Center
Tue 06:28:30 PM 42.8331 -77.5178 92° East 256 295 15,000 -50 Descending New York Center
Tue 06:29:30 PM 42.8303 -77.4214 92° East 256 295 15,000  Level New York Center
Tue 06:30:28 PM 42.8294 -77.3225 91° East 256 295 15,000  Level New York Center
Tue 06:31:29 PM 42.8264 -77.2258 92° East 256 295 15,000  Level New York Center
Tue 06:32:30 PM 42.8253 -77.1325 91° East 256 295 15,000  Level New York Center
Tue 06:33:31 PM 42.8242 -77.0336 91° East 256 295 15,000  Level New York Center
Tue 06:34:31 PM 42.8039 -76.9439 107° East 256 295 15,000  Level New York Center
Tue 06:35:29 PM 42.7683 -76.8644 121° Southeast 249 287 15,000  Level New York Center
Tue 06:36:29 PM 42.7331 -76.7792 119° Southeast 249 287 15,000  Level New York Center
Tue 06:37:30 PM 42.6956 -76.6967 122° Southeast 254 292 15,000  Level New York Center
Tue 06:37:51 PM 42.6744 -76.6542 124° Southeast 260 299 15,000  Level Boston Center
Tue 06:38:51 PM 42.6417 -76.5814 121° Southeast 253 291 15,000  Level Boston Center
Tue 06:39:51 PM 42.6050 -76.4997 121° Southeast 253 291 15,000  Level Boston Center
Tue 06:40:51 PM 42.5683 -76.4183 121° Southeast 253 291 15,000  Level Boston Center
Tue 06:41:51 PM 42.5317 -76.3372 122° Southeast 253 291 15,000  Level Boston Center
Tue 06:42:51 PM 42.4947 -76.2589 123° Southeast 253 291 15,000  Level Boston Center
Tue 06:43:51 PM 42.4636 -76.1836 119° Southeast 253 291 15,000  Level Boston Center
Tue 06:44:51 PM 42.4247 -76.1025 123° Southeast 253 291 15,000  Level Boston Center
Tue 06:45:51 PM 42.3878 -76.0217 122° Southeast 263 303 15,000  Level Boston Center
Tue 06:46:51 PM 42.3528 -75.9408 120° Southeast 254 292 15,000  Level Boston Center
Tue 06:47:51 PM 42.3156 -75.8603 122° Southeast 254 292 15,000  Level Boston Center
Tue 06:48:51 PM 42.2783 -75.7767 121° Southeast 254 292 15,000  Level Boston Center
Tue 06:49:51 PM 42.2411 -75.6964 122° Southeast 254 292 15,000  Level Boston Center
Tue 06:50:51 PM 42.2039 -75.6158 122° Southeast 254 292 15,000  Level Boston Center
Tue 06:51:51 PM 42.1664 -75.5356 122° Southeast 254 292 15,000  Level Boston Center
Tue 06:52:51 PM 42.1289 -75.4553 122° Southeast 254 292 15,000  Level Boston Center
Tue 06:53:51 PM 42.0914 -75.3750 122° Southeast 259 298 15,000  Level Boston Center
Tue 06:54:51 PM 42.0561 -75.2922 120° Southeast 259 298 15,000 50 Level Boston Center
Tue 06:55:51 PM 42.0247 -75.2069 116° Southeast 259 298 15,100 50 Climbing Boston Center
Tue 06:56:51 PM 41.9914 -75.1244 119° Southeast 254 292 15,100  Level Boston Center
Tue 06:57:51 PM 41.9561 -75.0308 117° Southeast 254 292 15,100  Level Boston Center
Tue 06:58:51 PM 41.9286 -74.9572 117° Southeast 249 287 15,100 -400 Level Boston Center
Tue 06:59:51 PM 41.8911 -74.8608 118° Southeast 254 292 14,300 -1,000 Descending Boston Center
Tue 07:00:51 PM 41.8594 -74.7789 117° Southeast 267 307 13,100 -1,600 Descending Boston Center
Tue 07:01:51 PM 41.8047 -74.6961 132° Southeast 267 307 11,100 -1,800 Descending Boston Center
Tue 07:02:51 PM 41.7494 -74.6522 149° Southeast 262 302 9,500 -1,600 Descending Boston Center
Tue 07:03:51 PM 41.6817 -74.5944 148° Southeast 262 302 7,900 -1,500 Descending Boston Center
Tue 07:04:51 PM 41.6261 -74.5508 150° Southeast 262 302 6,500 -950 Descending Boston Center
Tue 07:05:51 PM 41.5511 -74.5594 185° South 239 275 6,000 -250 Descending Boston Center
Tue 07:06:51 PM 41.4883 -74.5739 190° South 252 290 6,000  Level Boston Center
Tue 07:09:04 PM 41.3333 -74.6167 192° South 251 289 6,000 -151 Level New York TRACON
Tue 07:10:10 PM 41.2667 -74.5833 159° South 251 289 5,500 -429 Descending New York TRACON
Tue 07:11:10 PM 41.2167 -74.5167 135° Southeast 243 280 5,100 -200 Descending New York TRACON
Tue 07:12:10 PM 41.1667 -74.4833 153° Southeast 226 260 5,100 -50 Level New York TRACON
Tue 07:13:10 PM 41.1167 -74.4500 153° Southeast 230 265 5,000 -50 Descending New York TRACON
Tue 07:14:10 PM 41.0833 -74.3833 124° Southeast 222 255 5,000 50 Level New York TRACON
Tue 07:15:10 PM 41.0333 -74.3333 143° Southeast 219 252 5,100 -250 Climbing New York TRACON
Tue 07:16:10 PM 41.0000 -74.2667 124° Southeast 222 255 4,500 -500 Descending New York TRACON
Tue 07:17:10 PM 40.9500 -74.2167 143° Southeast 217 250 4,100 -200 Descending New York TRACON
Tue 07:18:10 PM 40.9167 -74.1500 123° Southeast 214 246 4,100 -450 Level New York TRACON
Tue 07:19:10 PM 40.8667 -74.1000 143° Southeast 215 247 3,200 -800 Descending New York TRACON
Tue 07:20:10 PM 40.8167 -74.0833 166° South 188 216 2,500 -750 Descending New York TRACON
Tue 07:21:10 PM 40.7667 -74.1167 207° Southwest 188 216 1,700 -850 Descending New York TRACON
Tue 07:22:10 PM 40.7333 -74.1333 201° Southwest 153 176 800 -900 Descending New York TRACON

Login

Don't have an account? Register now (free) for customized features, flight alerts, and more!